Time;durP1;ratioP1;P1;durP2;ratioP2;P2;SDS_P1;SDS_P2;PMS_P1;PMS_P2;Temp;Humidity;BMP_temperature;BMP_pressure;BME280_temperature;BME280_humidity;BME280_pressure;Samples;Min_cycle;Max_cycle;Signal;HPM_P1;HPM_P2
2021/07/24 00:03:57;;;;;;;12.45;6.10;;;;;;;;;;8291413;28;20044;-72
2021/07/24 00:08:21;;;;;;;11.80;6.15;;;;;;;;;;8293428;28;20507;-72
2021/07/24 00:12:27;;;;;;;13.43;6.72;;;;;;;;;;8294162;28;20105;-72
2021/07/24 00:16:30;;;;;;;15.52;6.57;;;;;;;;;;8292647;28;20056;-72
2021/07/24 00:20:35;;;;;;;12.23;6.18;;;;;;;;;;8307376;28;20491;-72
2021/07/24 00:24:41;;;;;;;11.20;6.38;;;;;;;;;;8291637;28;20057;-73
2021/07/24 00:28:47;;;;;;;12.52;5.55;;;;;;;;;;8291902;28;20371;-73
2021/07/24 00:32:52;;;;;;;15.40;6.50;;;;;;;;;;8291718;28;20475;-72
2021/07/24 00:36:59;;;;;;;12.45;6.60;;;;;;;;;;8290549;28;20071;-73
2021/07/24 00:41:09;;;;;;;11.23;6.53;;;;;;;;;;8289567;28;20360;-72
2021/07/24 00:45:15;;;;;;;14.32;5.88;;;;;;;;;;8288777;28;20170;-72
2021/07/24 00:49:21;;;;;;;12.75;6.32;;;;;;;;;;8290002;28;20455;-72
2021/07/24 00:53:35;;;;;;;10.07;6.63;;;;;;;;;;8288961;28;20070;-72
2021/07/24 00:57:41;;;;;;;15.77;6.53;;;;;;;;;;8275748;28;20052;-72
2021/07/24 01:01:46;;;;;;;16.95;7.07;;;;;;;;;;8274876;28;20535;-71
2021/07/24 01:05:57;;;;;;;12.02;6.30;;;;;;;;;;8290046;28;20482;-71
2021/07/24 01:10:04;;;;;;;15.27;6.30;;;;;;;;;;8289969;28;20463;-71
2021/07/24 01:14:11;;;;;;;11.98;5.60;;;;;;;;;;8293110;28;20486;-71
2021/07/24 01:18:18;;;;;;;13.30;6.82;;;;;;;;;;8287906;28;20491;-72
2021/07/24 01:22:27;;;;;;;13.63;5.80;;;;;;;;;;8290448;28;20435;-72
2021/07/24 01:26:34;;;;;;;11.27;6.55;;;;;;;;;;8289009;28;20463;-72
2021/07/24 01:30:43;;;;;;;14.73;5.95;;;;;;;;;;8291642;28;20355;-71
2021/07/24 01:34:49;;;;;;;14.05;6.35;;;;;;;;;;8271602;28;20044;-72
2021/07/24 01:38:58;;;;;;;12.48;6.38;;;;;;;;;;8305447;28;20379;-72
2021/07/24 01:43:04;;;;;;;9.82;5.68;;;;;;;;;;8289238;28;20455;-71
2021/07/24 01:47:10;;;;;;;11.02;6.20;;;;;;;;;;8290178;28;20052;-71
2021/07/24 01:56:01;;;;;;;12.75;6.13;;;;;;;;;;8275337;28;20479;-72
2021/07/24 02:00:12;;;;;;;9.20;5.13;;;;;;;;;;8255517;28;20367;-73
2021/07/24 02:04:49;;;;;;;14.55;6.10;;;;;;;;;;8289565;28;20450;-71
2021/07/24 02:08:56;;;;;;;12.10;6.25;;;;;;;;;;8288747;28;20037;-72
2021/07/24 02:13:01;;;;;;;12.70;6.15;;;;;;;;;;8289944;28;20347;-72
2021/07/24 02:17:08;;;;;;;9.13;5.93;;;;;;;;;;8271976;28;20431;-71
2021/07/24 02:21:15;;;;;;;11.38;6.40;;;;;;;;;;8288600;28;20044;-71
2021/07/24 02:25:21;;;;;;;9.82;6.03;;;;;;;;;;8288836;28;20482;-72
2021/07/24 02:29:27;;;;;;;10.90;5.68;;;;;;;;;;8274177;28;20382;-72
2021/07/24 02:33:33;;;;;;;17.63;7.13;;;;;;;;;;8297870;28;20040;-71
2021/07/24 02:37:43;;;;;;;10.63;6.75;;;;;;;;;;8261836;28;20359;-72
2021/07/24 02:41:49;;;;;;;10.27;5.75;;;;;;;;;;8276357;28;20341;-71
2021/07/24 02:45:55;;;;;;;10.23;5.88;;;;;;;;;;8294299;28;20065;-73
2021/07/24 02:50:02;;;;;;;11.27;6.18;;;;;;;;;;8311361;28;20394;-71
2021/07/24 02:54:06;;;;;;;10.48;5.63;;;;;;;;;;8293894;28;20106;-72
2021/07/24 02:58:14;;;;;;;10.55;6.13;;;;;;;;;;8294429;28;20166;-73
2021/07/24 03:02:20;;;;;;;11.90;7.00;;;;;;;;;;8309842;28;20512;-72
2021/07/24 03:06:26;;;;;;;9.98;5.80;;;;;;;;;;8295305;28;20402;-71
2021/07/24 03:10:31;;;;;;;12.82;6.32;;;;;;;;;;8294292;28;20048;-71
2021/07/24 03:14:36;;;;;;;10.88;6.18;;;;;;;;;;8293130;28;20381;-72
2021/07/24 03:18:42;;;;;;;10.07;5.97;;;;;;;;;;8294535;28;20367;-71
2021/07/24 03:22:47;;;;;;;11.13;5.72;;;;;;;;;;8295813;28;20048;-72
2021/07/24 03:26:52;;;;;;;13.52;6.18;;;;;;;;;;8292059;28;20028;-72
2021/07/24 03:30:57;;;;;;;14.15;6.50;;;;;;;;;;8293633;28;20402;-72
2021/07/24 03:35:02;;;;;;;18.27;6.38;;;;;;;;;;8291622;28;20470;-72
2021/07/24 03:39:07;;;;;;;17.38;8.13;;;;;;;;;;8293067;28;20398;-71
2021/07/24 03:43:12;;;;;;;15.13;8.50;;;;;;;;;;8295693;28;20483;-72
2021/07/24 03:47:17;;;;;;;12.00;7.63;;;;;;;;;;8293606;28;20490;-71
2021/07/24 03:51:23;;;;;;;17.45;9.73;;;;;;;;;;8291755;28;20353;-71
2021/07/24 03:55:28;;;;;;;11.98;6.90;;;;;;;;;;8292484;28;20352;-71
2021/07/24 03:59:35;;;;;;;9.25;6.20;;;;;;;;;;8293399;28;20347;-72
2021/07/24 04:03:39;;;;;;;9.38;5.95;;;;;;;;;;8294870;28;20471;-71
2021/07/24 04:07:44;;;;;;;10.70;5.28;;;;;;;;;;8292342;28;20489;-71
2021/07/24 04:11:49;;;;;;;9.43;5.70;;;;;;;;;;8291163;28;20463;-72
2021/07/24 04:15:54;;;;;;;8.73;5.28;;;;;;;;;;8291149;28;20465;-72
2021/07/24 04:19:59;;;;;;;14.38;5.80;;;;;;;;;;8273863;28;20483;-71
2021/07/24 04:24:05;;;;;;;17.52;5.88;;;;;;;;;;8292017;28;20490;-71
2021/07/24 04:28:10;;;;;;;9.63;5.47;;;;;;;;;;8292345;28;20367;-72
2021/07/24 04:32:16;;;;;;;13.25;5.32;;;;;;;;;;8291534;28;20098;-71
2021/07/24 04:36:20;;;;;;;10.40;5.70;;;;;;;;;;8291207;28;20471;-71
2021/07/24 04:40:25;;;;;;;9.38;5.07;;;;;;;;;;8289342;28;20378;-71
2021/07/24 04:44:30;;;;;;;10.20;5.32;;;;;;;;;;8290601;28;20466;-72
2021/07/24 04:48:35;;;;;;;12.07;5.45;;;;;;;;;;8289249;28;20375;-71
2021/07/24 04:52:40;;;;;;;7.82;5.53;;;;;;;;;;8291745;28;20036;-73
2021/07/24 04:56:45;;;;;;;12.48;5.40;;;;;;;;;;8290731;28;20467;-71
2021/07/24 05:00:50;;;;;;;10.63;5.43;;;;;;;;;;8289338;28;20494;-71
2021/07/24 05:04:57;;;;;;;10.32;5.60;;;;;;;;;;8290960;28;20502;-71
2021/07/24 05:09:05;;;;;;;10.70;5.35;;;;;;;;;;8290971;28;20091;-72
2021/07/24 05:13:10;;;;;;;12.57;6.32;;;;;;;;;;8290311;28;20045;-72
2021/07/24 05:17:15;;;;;;;9.23;5.32;;;;;;;;;;8291823;28;20487;-72
2021/07/24 05:21:21;;;;;;;13.70;4.80;;;;;;;;;;8290313;28;20470;-71
2021/07/24 05:25:26;;;;;;;6.88;4.50;;;;;;;;;;8289175;28;20356;-71
2021/07/24 05:29:30;;;;;;;8.90;5.32;;;;;;;;;;8289959;28;20048;-71
2021/07/24 05:33:35;;;;;;;8.27;4.72;;;;;;;;;;8291874;28;20413;-72
2021/07/24 05:37:40;;;;;;;8.40;4.88;;;;;;;;;;8287617;28;20083;-72
2021/07/24 05:41:45;;;;;;;9.38;4.65;;;;;;;;;;8290306;28;20363;-71
2021/07/24 05:45:51;;;;;;;10.77;4.50;;;;;;;;;;8234968;28;20380;-72
2021/07/24 05:49:56;;;;;;;7.07;4.10;;;;;;;;;;8305129;28;20395;-71
2021/07/24 05:54:01;;;;;;;18.90;4.63;;;;;;;;;;8290554;28;20439;-72
2021/07/24 05:58:08;;;;;;;7.80;4.57;;;;;;;;;;8304587;28;20044;-71
2021/07/24 06:02:14;;;;;;;7.13;4.60;;;;;;;;;;8290382;28;20324;-71
2021/07/24 06:06:19;;;;;;;7.68;4.32;;;;;;;;;;8278239;28;20049;-72
2021/07/24 06:10:25;;;;;;;12.30;4.68;;;;;;;;;;8297415;28;20444;-72
2021/07/24 06:14:32;;;;;;;10.18;4.13;;;;;;;;;;8294497;28;20394;-72
2021/07/24 06:18:38;;;;;;;9.67;4.17;;;;;;;;;;8293297;28;20052;-72
2021/07/24 06:22:43;;;;;;;9.65;4.57;;;;;;;;;;8293737;28;20359;-71
2021/07/24 06:26:48;;;;;;;9.57;3.85;;;;;;;;;;8295177;28;20340;-72
2021/07/24 06:30:52;;;;;;;6.20;3.63;;;;;;;;;;8210351;28;20469;-72
2021/07/24 06:34:58;;;;;;;9.07;4.45;;;;;;;;;;8298367;28;20386;-72
2021/07/24 06:39:03;;;;;;;6.45;3.50;;;;;;;;;;8298009;28;20486;-72
2021/07/24 06:43:08;;;;;;;9.68;3.80;;;;;;;;;;8295877;28;20363;-71
2021/07/24 06:47:13;;;;;;;6.35;3.60;;;;;;;;;;8294362;28;20071;-72
2021/07/24 06:51:19;;;;;;;7.28;3.78;;;;;;;;;;8293632;28;20333;-72
2021/07/24 06:55:24;;;;;;;7.68;3.63;;;;;;;;;;8294603;28;20355;-72
2021/07/24 06:59:29;;;;;;;6.47;3.13;;;;;;;;;;8295229;28;20388;-73
2021/07/24 07:03:34;;;;;;;5.03;3.28;;;;;;;;;;8295400;28;20364;-72
2021/07/24 07:07:39;;;;;;;4.82;2.53;;;;;;;;;;8295791;28;20386;-72
2021/07/24 07:11:44;;;;;;;4.43;3.08;;;;;;;;;;8294166;28;20071;-71
2021/07/24 07:15:49;;;;;;;4.80;3.13;;;;;;;;;;8294076;28;20363;-72
2021/07/24 07:19:54;;;;;;;3.83;3.08;;;;;;;;;;8294270;28;20048;-72
2021/07/24 07:23:59;;;;;;;6.25;3.00;;;;;;;;;;8294007;28;20390;-72
2021/07/24 07:28:05;;;;;;;8.27;3.00;;;;;;;;;;8294827;28;20071;-71
2021/07/24 07:32:10;;;;;;;5.32;3.15;;;;;;;;;;8293725;28;20471;-72
2021/07/24 07:36:15;;;;;;;5.53;3.17;;;;;;;;;;8291909;28;20064;-73
2021/07/24 07:40:22;;;;;;;6.50;2.85;;;;;;;;;;8292015;28;20360;-72
2021/07/24 07:44:28;;;;;;;4.15;2.75;;;;;;;;;;8292991;28;20386;-72
2021/07/24 07:48:37;;;;;;;3.75;2.17;;;;;;;;;;8293586;28;20360;-72
2021/07/24 07:52:42;;;;;;;5.55;2.83;;;;;;;;;;8294120;28;20406;-72
2021/07/24 07:56:48;;;;;;;6.85;3.08;;;;;;;;;;8291882;28;20450;-72
2021/07/24 08:00:56;;;;;;;4.75;2.85;;;;;;;;;;8291899;28;20490;-72
2021/07/24 08:05:01;;;;;;;5.00;2.55;;;;;;;;;;8291253;28;20398;-74
2021/07/24 08:09:06;;;;;;;5.97;2.70;;;;;;;;;;8274497;28;20067;-72
2021/07/24 08:13:14;;;;;;;4.28;2.10;;;;;;;;;;8291808;28;20386;-72
2021/07/24 08:17:21;;;;;;;8.45;2.45;;;;;;;;;;8274112;28;20361;-73
2021/07/24 08:21:26;;;;;;;4.18;2.35;;;;;;;;;;8292077;28;20521;-72
2021/07/24 08:25:31;;;;;;;4.53;2.50;;;;;;;;;;8290995;28;20364;-73
2021/07/24 08:29:36;;;;;;;5.72;2.58;;;;;;;;;;8291240;28;20430;-71
2021/07/24 08:33:41;;;;;;;6.93;2.35;;;;;;;;;;8290111;28;20467;-72
2021/07/24 08:37:46;;;;;;;4.00;2.25;;;;;;;;;;8289588;28;20391;-72
2021/07/24 08:41:51;;;;;;;3.20;2.42;;;;;;;;;;8293635;28;20460;-72
2021/07/24 08:45:59;;;;;;;4.93;2.10;;;;;;;;;;8291470;28;20375;-72
2021/07/24 08:50:07;;;;;;;4.43;2.30;;;;;;;;;;8291340;28;20070;-72
2021/07/24 08:54:12;;;;;;;3.30;2.33;;;;;;;;;;8290198;28;20371;-73
2021/07/24 08:58:18;;;;;;;3.42;2.28;;;;;;;;;;8274844;28;20371;-73
2021/07/24 09:02:26;;;;;;;3.92;2.05;;;;;;;;;;8273708;28;20447;-72
2021/07/24 09:06:33;;;;;;;8.48;2.40;;;;;;;;;;8286717;28;20056;-72
2021/07/24 09:10:38;;;;;;;3.90;2.47;;;;;;;;;;8287106;28;20364;-71
2021/07/24 09:14:43;;;;;;;5.80;2.70;;;;;;;;;;8285759;28;20471;-72
2021/07/24 09:18:49;;;;;;;3.58;2.42;;;;;;;;;;8271083;28;20368;-72
2021/07/24 09:22:55;;;;;;;4.30;2.80;;;;;;;;;;8291276;28;20378;-73
2021/07/24 09:26:59;;;;;;;4.60;2.42;;;;;;;;;;8290163;28;20501;-73
2021/07/24 09:31:21;;;;;;;6.00;2.38;;;;;;;;;;8287398;28;20620;-72
2021/07/24 09:35:36;;;;;;;4.13;2.50;;;;;;;;;;8287634;28;20487;-73
2021/07/24 09:39:41;;;;;;;4.05;2.58;;;;;;;;;;8288779;28;20482;-72
2021/07/24 09:43:46;;;;;;;4.40;2.50;;;;;;;;;;8287885;28;20471;-72
2021/07/24 09:47:52;;;;;;;6.88;2.72;;;;;;;;;;8290807;28;20108;-71
2021/07/24 09:52:10;;;;;;;3.20;2.42;;;;;;;;;;8289823;28;20455;-72
2021/07/24 09:56:15;;;;;;;3.67;2.50;;;;;;;;;;8288006;28;20352;-72
2021/07/24 10:00:26;;;;;;;5.90;2.50;;;;;;;;;;8272135;28;20345;-72
2021/07/24 10:04:35;;;;;;;4.85;2.72;;;;;;;;;;8290300;28;20351;-73
2021/07/24 10:09:00;;;;;;;3.13;2.20;;;;;;;;;;8291509;28;20347;-71
2021/07/24 10:13:13;;;;;;;6.78;2.47;;;;;;;;;;8289098;28;20335;-72
2021/07/24 10:17:18;;;;;;;6.38;2.80;;;;;;;;;;8288562;28;20079;-73
2021/07/24 10:21:23;;;;;;;11.18;3.25;;;;;;;;;;8288371;28;20398;-72
2021/07/24 10:25:28;;;;;;;4.65;2.80;;;;;;;;;;8289289;28;20460;-74
2021/07/24 10:29:35;;;;;;;3.83;2.90;;;;;;;;;;8271719;28;20406;-72
2021/07/24 10:33:40;;;;;;;6.55;3.33;;;;;;;;;;8287296;28;20501;-72
2021/07/24 10:37:46;;;;;;;6.85;2.92;;;;;;;;;;8291040;28;20475;-73
2021/07/24 10:42:10;;;;;;;3.72;2.65;;;;;;;;;;8287487;28;20378;-72
2021/07/24 10:46:15;;;;;;;3.63;2.33;;;;;;;;;;8287430;28;20357;-72
2021/07/24 10:50:21;;;;;;;4.35;2.75;;;;;;;;;;8291522;28;20036;-72
2021/07/24 10:54:30;;;;;;;5.85;2.55;;;;;;;;;;8295205;28;20101;-73
2021/07/24 10:58:33;;;;;;;3.95;2.72;;;;;;;;;;8292658;28;20325;-72
2021/07/24 11:02:46;;;;;;;8.75;2.47;;;;;;;;;;8294326;28;20363;-73
2021/07/24 11:06:51;;;;;;;5.63;3.33;;;;;;;;;;8296148;28;20411;-72
2021/07/24 11:11:11;;;;;;;4.43;3.17;;;;;;;;;;8255293;28;20437;-71
2021/07/24 11:15:21;;;;;;;4.25;2.55;;;;;;;;;;8294722;28;20067;-74
2021/07/24 11:19:26;;;;;;;5.05;3.00;;;;;;;;;;8292227;28;20467;-73
2021/07/24 11:23:31;;;;;;;4.25;2.90;;;;;;;;;;8291845;28;20405;-72
2021/07/24 11:27:37;;;;;;;4.60;2.58;;;;;;;;;;8292067;28;20499;-73
2021/07/24 11:31:43;;;;;;;10.35;3.05;;;;;;;;;;8293078;28;20383;-72
2021/07/24 11:35:49;;;;;;;;;;;;;;;;;;8293911;28;20459;-72
2021/07/24 11:39:55;;;;;;;4.38;2.85;;;;;;;;;;8291895;28;20311;-73
2021/07/24 11:44:00;;;;;;;5.55;3.10;;;;;;;;;;8291686;28;20375;-72
2021/07/24 11:48:18;;;;;;;10.05;3.38;;;;;;;;;;8292076;28;20375;-74
2021/07/24 11:52:23;;;;;;;5.03;2.97;;;;;;;;;;8294988;28;20482;-72
2021/07/24 11:56:28;;;;;;;4.03;2.67;;;;;;;;;;8291617;28;20370;-71
2021/07/24 12:00:36;;;;;;;6.38;2.75;;;;;;;;;;8294109;28;20348;-72
2021/07/24 12:04:48;;;;;;;3.55;2.70;;;;;;;;;;8292635;28;20374;-72
2021/07/24 12:08:54;;;;;;;5.13;2.83;;;;;;;;;;8291577;28;20406;-71
2021/07/24 12:12:59;;;;;;;6.63;3.03;;;;;;;;;;8293032;28;20394;-71
2021/07/24 12:17:06;;;;;;;5.72;2.83;;;;;;;;;;8290691;28;20066;-72
2021/07/24 12:21:36;;;;;;;4.32;2.80;;;;;;;;;;8292914;28;20464;-72
2021/07/24 12:25:41;;;;;;;5.32;2.65;;;;;;;;;;8291866;28;20379;-72
2021/07/24 12:29:48;;;;;;;5.72;2.70;;;;;;;;;;8292724;28;20459;-71
2021/07/24 12:34:03;;;;;;;6.57;4.32;;;;;;;;;;8291458;28;20453;-72
2021/07/24 12:38:08;;;;;;;4.32;2.65;;;;;;;;;;8289172;28;20048;-72
2021/07/24 12:42:13;;;;;;;4.60;3.00;;;;;;;;;;8289903;28;20482;-71
2021/07/24 12:46:19;;;;;;;4.33;2.97;;;;;;;;;;8271036;28;20491;-71
2021/07/24 12:50:24;;;;;;;7.32;3.33;;;;;;;;;;8287479;28;20399;-71
2021/07/24 12:54:31;;;;;;;9.20;3.13;;;;;;;;;;8289645;28;20440;-70
2021/07/24 12:58:38;;;;;;;6.15;3.10;;;;;;;;;;8291352;28;20471;-71
2021/07/24 13:02:43;;;;;;;3.58;2.78;;;;;;;;;;8291495;28;20463;-71
2021/07/24 13:06:49;;;;;;;6.97;3.40;;;;;;;;;;8288859;28;20067;-71
2021/07/24 13:10:54;;;;;;;5.28;3.30;;;;;;;;;;8287814;28;20513;-71
2021/07/24 13:14:59;;;;;;;4.15;3.10;;;;;;;;;;8271897;28;20505;-71
2021/07/24 13:19:06;;;;;;;6.28;3.17;;;;;;;;;;8288648;28;20375;-71
2021/07/24 13:23:11;;;;;;;6.78;3.47;;;;;;;;;;8291208;28;20471;-71
2021/07/24 13:31:39;;;;;;;4.07;2.80;;;;;;;;;;8293712;28;20591;-71
2021/07/24 13:35:45;;;;;;;3.95;2.75;;;;;;;;;;8144461;28;20444;-71
2021/07/24 13:39:51;;;;;;;6.85;2.70;;;;;;;;;;8020878;28;20472;-71
2021/07/24 13:43:56;;;;;;;4.90;2.95;;;;;;;;;;8066056;28;20502;-71
2021/07/24 13:48:01;;;;;;;5.80;3.33;;;;;;;;;;8219240;28;20488;-71
2021/07/24 13:52:07;;;;;;;5.20;2.80;;;;;;;;;;8292447;28;20368;-72
2021/07/24 13:56:17;;;;;;;5.57;3.13;;;;;;;;;;8304500;28;20460;-72
2021/07/24 14:00:22;;;;;;;10.15;3.22;;;;;;;;;;8288775;28;20988;-72
2021/07/24 14:04:27;;;;;;;6.00;3.70;;;;;;;;;;8291054;28;20371;-72
2021/07/24 14:08:32;;;;;;;7.70;3.03;;;;;;;;;;8289624;28;20044;-72
2021/07/24 14:12:38;;;;;;;4.50;3.28;;;;;;;;;;8289636;28;20371;-72
2021/07/24 14:16:53;;;;;;;6.03;3.83;;;;;;;;;;8287730;28;20348;-72
2021/07/24 14:20:58;;;;;;;4.72;3.80;;;;;;;;;;8288128;28;20062;-72
2021/07/24 14:25:04;;;;;;;7.68;3.28;;;;;;;;;;8294483;28;20467;-72
2021/07/24 14:29:50;;;;;;;5.15;3.08;;;;;;;;;;8241057;28;20932;-73
2021/07/24 14:33:56;;;;;;;5.18;3.40;;;;;;;;;;8250928;28;20353;-72
2021/07/24 14:38:01;;;;;;;8.95;3.67;;;;;;;;;;8253881;28;20364;-71
2021/07/24 14:42:13;;;;;;;5.97;3.25;;;;;;;;;;8249159;28;20390;-73
2021/07/24 14:46:20;;;;;;;5.45;3.67;;;;;;;;;;8255068;28;20320;-72
2021/07/24 14:50:28;;;;;;;7.45;3.55;;;;;;;;;;8254605;28;20381;-73
2021/07/24 14:54:34;;;;;;;6.50;3.80;;;;;;;;;;8252242;28;20382;-73
2021/07/24 14:58:40;;;;;;;6.03;3.63;;;;;;;;;;8250482;28;20337;-73
2021/07/24 15:02:46;;;;;;;6.80;3.33;;;;;;;;;;8255610;28;20472;-72
2021/07/24 15:06:51;;;;;;;5.63;3.28;;;;;;;;;;8252336;28;20045;-72
2021/07/24 15:11:11;;;;;;;4.85;3.17;;;;;;;;;;8252112;28;20523;-72
2021/07/24 15:15:17;;;;;;;6.90;3.40;;;;;;;;;;8249756;28;20502;-73
2021/07/24 15:19:22;;;;;;;4.55;2.90;;;;;;;;;;8249935;28;20052;-72
2021/07/24 15:23:27;;;;;;;5.82;3.28;;;;;;;;;;8252543;28;20380;-74
2021/07/24 15:27:32;;;;;;;4.80;3.20;;;;;;;;;;8251068;28;20445;-72
2021/07/24 15:31:38;;;;;;;8.98;3.58;;;;;;;;;;8250568;28;20375;-73
2021/07/24 15:35:43;;;;;;;9.90;3.63;;;;;;;;;;8249484;28;20064;-72
2021/07/24 15:39:49;;;;;;;5.20;3.40;;;;;;;;;;8237468;28;20464;-72
2021/07/24 15:43:54;;;;;;;5.55;3.53;;;;;;;;;;8229828;28;20352;-73
2021/07/24 15:48:00;;;;;;;5.80;3.40;;;;;;;;;;8227246;28;20499;-73
2021/07/24 15:52:06;;;;;;;7.72;3.65;;;;;;;;;;8229103;28;20376;-71
2021/07/24 15:56:13;;;;;;;4.85;3.17;;;;;;;;;;8229198;28;20396;-72
2021/07/24 16:00:18;;;;;;;6.43;3.63;;;;;;;;;;8226898;28;20482;-73
2021/07/24 16:04:23;;;;;;;6.28;3.30;;;;;;;;;;8231031;28;20376;-72
2021/07/24 16:08:28;;;;;;;6.30;3.50;;;;;;;;;;8227832;28;20053;-73
2021/07/24 16:12:32;;;;;;;8.20;3.80;;;;;;;;;;8228934;28;20063;-73
2021/07/24 16:16:57;;;;;;;5.68;3.80;;;;;;;;;;8228623;28;20060;-72
2021/07/24 16:21:02;;;;;;;8.25;4.30;;;;;;;;;;8228100;28;20472;-73
2021/07/24 16:25:08;;;;;;;10.23;3.72;;;;;;;;;;8227556;28;20041;-73
2021/07/24 16:29:14;;;;;;;6.28;3.28;;;;;;;;;;8226727;28;20330;-74
2021/07/24 16:33:18;;;;;;;7.78;3.92;;;;;;;;;;8224902;28;20373;-72
2021/07/24 16:37:23;;;;;;;6.35;3.63;;;;;;;;;;8227458;28;20484;-73
2021/07/24 16:41:28;;;;;;;5.63;3.50;;;;;;;;;;8227875;28;20373;-73
2021/07/24 16:45:36;;;;;;;7.78;3.30;;;;;;;;;;8226256;28;20372;-73
2021/07/24 16:49:41;;;;;;;4.70;3.58;;;;;;;;;;8225366;28;20399;-72
2021/07/24 16:53:46;;;;;;;6.55;4.00;;;;;;;;;;8258346;28;20527;-73
2021/07/24 16:57:51;;;;;;;6.63;3.97;;;;;;;;;;8225284;28;20362;-73
2021/07/24 17:01:57;;;;;;;6.25;3.97;;;;;;;;;;8227954;28;20057;-72
2021/07/24 17:06:02;;;;;;;7.03;3.40;;;;;;;;;;8225113;28;20503;-72
2021/07/24 17:10:10;;;;;;;5.60;3.70;;;;;;;;;;8227225;28;20393;-72
2021/07/24 17:14:16;;;;;;;8.35;3.60;;;;;;;;;;8225855;28;20368;-73
2021/07/24 17:18:21;;;;;;;8.00;4.03;;;;;;;;;;8225147;28;20490;-73
2021/07/24 17:22:26;;;;;;;7.45;3.72;;;;;;;;;;8225544;28;20334;-72
2021/07/24 17:26:32;;;;;;;10.20;3.35;;;;;;;;;;8225273;28;20372;-73
2021/07/24 17:30:38;;;;;;;10.23;4.03;;;;;;;;;;8241672;28;20353;-72
2021/07/24 17:34:43;;;;;;;8.02;4.30;;;;;;;;;;8225047;28;20068;-72
2021/07/24 17:38:49;;;;;;;5.78;4.22;;;;;;;;;;8225593;28;20069;-72
2021/07/24 17:42:56;;;;;;;7.10;4.63;;;;;;;;;;8225855;28;20049;-72
2021/07/24 17:47:01;;;;;;;10.23;6.40;;;;;;;;;;8228394;28;20646;-72
2021/07/24 17:51:08;;;;;;;18.55;8.05;;;;;;;;;;8226502;28;20475;-71
2021/07/24 17:55:16;;;;;;;14.05;8.45;;;;;;;;;;8223785;28;20459;-72
2021/07/24 17:59:21;;;;;;;13.38;9.45;;;;;;;;;;8224369;28;20384;-72
2021/07/24 18:03:27;;;;;;;16.17;11.20;;;;;;;;;;8225232;28;20368;-71
2021/07/24 18:07:32;;;;;;;18.55;9.73;;;;;;;;;;8225717;28;20461;-71
2021/07/24 18:11:37;;;;;;;20.38;11.70;;;;;;;;;;8224423;28;20063;-71
2021/07/24 18:15:43;;;;;;;20.38;12.93;;;;;;;;;;8224813;28;20364;-71
2021/07/24 18:19:48;;;;;;;19.25;11.10;;;;;;;;;;8223222;28;20067;-72
2021/07/24 18:23:54;;;;;;;19.35;12.38;;;;;;;;;;8240041;28;20348;-72
2021/07/24 18:27:59;;;;;;;34.17;18.85;;;;;;;;;;8224260;28;20404;-71
2021/07/24 18:32:04;;;;;;;48.25;23.67;;;;;;;;;;8223019;28;20411;-72
2021/07/24 18:36:10;;;;;;;66.10;33.47;;;;;;;;;;8226047;28;20337;-71
2021/07/24 18:40:17;;;;;;;74.43;36.25;;;;;;;;;;8223489;28;20396;-71
2021/07/24 18:44:23;;;;;;;32.97;20.58;;;;;;;;;;8223521;28;20476;-71
2021/07/24 18:48:29;;;;;;;26.85;16.70;;;;;;;;;;8219338;28;20493;-72
2021/07/24 18:52:34;;;;;;;21.77;12.65;;;;;;;;;;8222962;28;20049;-71
2021/07/24 18:56:39;;;;;;;19.05;11.82;;;;;;;;;;8225156;28;20479;-71
2021/07/24 19:00:45;;;;;;;66.70;43.10;;;;;;;;;;8225641;28;20051;-71
2021/07/24 19:04:51;;;;;;;113.80;64.22;;;;;;;;;;8222760;28;20072;-72
2021/07/24 19:08:57;;;;;;;38.40;21.55;;;;;;;;;;8225373;28;20499;-73
2021/07/24 19:13:03;;;;;;;23.20;15.95;;;;;;;;;;8255246;28;20380;-72
2021/07/24 19:17:08;;;;;;;17.02;10.00;;;;;;;;;;8230517;28;20371;-72
2021/07/24 19:21:22;;;;;;;14.98;8.55;;;;;;;;;;8230021;28;20465;-71
2021/07/24 19:25:27;;;;;;;12.57;7.28;;;;;;;;;;8228508;28;20067;-71
2021/07/24 19:29:33;;;;;;;15.52;8.77;;;;;;;;;;8231903;28;20495;-71
2021/07/24 19:33:38;;;;;;;11.65;8.10;;;;;;;;;;8230624;28;20037;-71
2021/07/24 19:37:43;;;;;;;16.33;9.30;;;;;;;;;;8228829;28;20334;-71
2021/07/24 19:41:49;;;;;;;15.65;9.82;;;;;;;;;;8227950;28;20460;-72
2021/07/24 19:45:54;;;;;;;16.33;8.90;;;;;;;;;;8229126;28;20053;-72
2021/07/24 19:50:00;;;;;;;13.18;8.40;;;;;;;;;;8214009;28;20606;-72
2021/07/24 19:54:05;;;;;;;15.85;8.45;;;;;;;;;;8231557;28;20460;-71
2021/07/24 19:58:10;;;;;;;12.15;7.55;;;;;;;;;;8231944;28;20049;-72
2021/07/24 20:02:16;;;;;;;16.63;7.78;;;;;;;;;;8231414;28;20499;-73
2021/07/24 20:06:22;;;;;;;15.27;7.30;;;;;;;;;;8228671;28;20505;-72
2021/07/24 20:10:28;;;;;;;12.60;7.45;;;;;;;;;;8228882;28;20353;-73
2021/07/24 20:14:33;;;;;;;12.90;7.75;;;;;;;;;;8226445;28;20057;-72
2021/07/24 20:18:39;;;;;;;16.50;8.20;;;;;;;;;;8228493;28;20479;-72
2021/07/24 20:22:44;;;;;;;12.30;8.13;;;;;;;;;;8227678;28;20348;-72
2021/07/24 20:26:53;;;;;;;16.17;8.02;;;;;;;;;;8225032;28;20138;-72
2021/07/24 20:30:59;;;;;;;17.02;8.15;;;;;;;;;;8228956;28;20326;-72
2021/07/24 20:35:05;;;;;;;13.85;8.23;;;;;;;;;;8210277;28;20338;-72
2021/07/24 20:39:11;;;;;;;16.70;7.95;;;;;;;;;;8225288;28;20391;-73
2021/07/24 20:43:16;;;;;;;16.55;7.93;;;;;;;;;;8227943;28;20049;-72
2021/07/24 20:47:21;;;;;;;15.93;8.30;;;;;;;;;;8226233;28;20472;-72
2021/07/24 20:51:26;;;;;;;13.73;7.85;;;;;;;;;;8227399;28;20465;-72
2021/07/24 20:55:32;;;;;;;12.55;8.10;;;;;;;;;;8226261;28;20063;-72
2021/07/24 20:59:38;;;;;;;12.02;8.23;;;;;;;;;;8226192;28;20411;-72
2021/07/24 21:03:44;;;;;;;16.33;8.95;;;;;;;;;;8226591;28;20652;-73
2021/07/24 21:07:49;;;;;;;16.80;8.65;;;;;;;;;;8225493;28;20068;-72
2021/07/24 21:11:55;;;;;;;15.43;8.85;;;;;;;;;;8227585;28;20075;-72
2021/07/24 21:16:00;;;;;;;18.52;8.45;;;;;;;;;;8225603;28;20365;-72
2021/07/24 21:20:07;;;;;;;14.35;8.70;;;;;;;;;;8224994;28;20053;-72
2021/07/24 21:24:33;;;;;;;15.48;8.93;;;;;;;;;;8225632;28;20049;-73
2021/07/24 21:28:38;;;;;;;15.05;8.55;;;;;;;;;;8207762;28;20473;-73
2021/07/24 21:32:50;;;;;;;16.30;9.40;;;;;;;;;;8210024;28;20488;-72
2021/07/24 21:36:58;;;;;;;12.43;8.18;;;;;;;;;;8225294;28;20045;-72
2021/07/24 21:41:06;;;;;;;13.63;9.23;;;;;;;;;;8223697;28;20038;-71
2021/07/24 21:45:14;;;;;;;16.17;9.23;;;;;;;;;;8209299;28;20384;-72
2021/07/24 21:49:20;;;;;;;13.63;8.45;;;;;;;;;;8226296;28;20473;-72
2021/07/24 21:53:27;;;;;;;24.85;13.05;;;;;;;;;;8223773;28;20391;-72
2021/07/24 21:57:33;;;;;;;17.80;11.43;;;;;;;;;;8225509;28;20480;-72
2021/07/24 22:01:41;;;;;;;16.90;10.55;;;;;;;;;;8224224;28;20362;-72
2021/07/24 22:05:46;;;;;;;17.30;9.73;;;;;;;;;;8227102;28;20468;-72
2021/07/24 22:09:51;;;;;;;14.40;9.32;;;;;;;;;;8224611;28;20049;-72
2021/07/24 22:13:58;;;;;;;16.98;10.13;;;;;;;;;;8224668;28;20373;-72
2021/07/24 22:18:19;;;;;;;19.92;11.27;;;;;;;;;;8225382;28;20412;-72
2021/07/24 22:22:23;;;;;;;16.50;9.82;;;;;;;;;;8222641;28;20368;-73
2021/07/24 22:26:29;;;;;;;15.40;8.43;;;;;;;;;;8223998;28;20374;-73
2021/07/24 22:30:35;;;;;;;21.95;9.38;;;;;;;;;;8206754;28;20452;-73
2021/07/24 22:34:40;;;;;;;16.63;8.13;;;;;;;;;;8222523;28;20361;-72
2021/07/24 22:38:48;;;;;;;10.98;7.38;;;;;;;;;;8222041;28;20367;-73
2021/07/24 22:42:52;;;;;;;14.10;7.45;;;;;;;;;;8224845;28;20357;-73
2021/07/24 22:47:06;;;;;;;12.70;7.00;;;;;;;;;;8223512;28;20514;-73
2021/07/24 22:51:10;;;;;;;12.90;6.90;;;;;;;;;;8212300;28;20499;-73
2021/07/24 22:55:15;;;;;;;11.32;7.03;;;;;;;;;;8228656;28;20472;-73
2021/07/24 22:59:20;;;;;;;11.38;6.72;;;;;;;;;;8230308;28;20453;-72
2021/07/24 23:03:25;;;;;;;11.90;7.00;;;;;;;;;;8230305;28;20484;-72
2021/07/24 23:07:31;;;;;;;10.32;7.00;;;;;;;;;;8229232;28;20352;-72
2021/07/24 23:11:37;;;;;;;9.60;6.88;;;;;;;;;;8229840;28;20484;-73
2021/07/24 23:15:41;;;;;;;11.40;7.20;;;;;;;;;;8229367;28;20500;-72
2021/07/24 23:19:46;;;;;;;11.48;6.63;;;;;;;;;;8230790;28;20476;-72
2021/07/24 23:23:52;;;;;;;8.80;6.10;;;;;;;;;;8228871;28;20060;-72
2021/07/24 23:27:57;;;;;;;12.68;7.20;;;;;;;;;;8228685;28;20395;-72
2021/07/24 23:32:03;;;;;;;12.32;7.40;;;;;;;;;;8230774;28;20449;-72
2021/07/24 23:36:07;;;;;;;9.52;6.55;;;;;;;;;;8230995;28;20357;-72
2021/07/24 23:40:19;;;;;;;9.30;6.88;;;;;;;;;;8212621;28;20369;-73
2021/07/24 23:44:24;;;;;;;11.32;7.07;;;;;;;;;;8244152;28;20476;-72
2021/07/24 23:48:30;;;;;;;15.00;6.53;;;;;;;;;;8227488;28;20376;-72
2021/07/24 23:52:35;;;;;;;12.02;5.85;;;;;;;;;;8229166;28;20068;-72
2021/07/24 23:56:39;;;;;;;15.05;7.25;;;;;;;;;;8227162;28;20629;-72
